sensor_id;sensor_type;location;lat;lon;timestamp;temperature;humidity
18041;DHT22;9145;48.588;9.250;2023-11-19T00:00:17;8.40;99.90
18041;DHT22;9145;48.588;9.250;2023-11-19T00:02:44;8.40;99.90
18041;DHT22;9145;48.588;9.250;2023-11-19T00:05:14;8.40;99.90
18041;DHT22;9145;48.588;9.250;2023-11-19T00:07:41;8.40;99.90
18041;DHT22;9145;48.588;9.250;2023-11-19T00:10:09;8.40;99.90
18041;DHT22;9145;48.588;9.250;2023-11-19T00:12:37;8.50;99.90
18041;DHT22;9145;48.588;9.250;2023-11-19T00:15:05;8.50;99.90
18041;DHT22;9145;48.588;9.250;2023-11-19T00:17:32;8.50;99.90
18041;DHT22;9145;48.588;9.250;2023-11-19T00:19:59;8.50;99.90
18041;DHT22;9145;48.588;9.250;2023-11-19T00:22:27;8.50;99.90
18041;DHT22;9145;48.588;9.250;2023-11-19T00:24:53;8.60;99.90
18041;DHT22;9145;48.588;9.250;2023-11-19T00:27:20;8.60;99.90
18041;DHT22;9145;48.588;9.250;2023-11-19T00:29:47;8.70;99.90
18041;DHT22;9145;48.588;9.250;2023-11-19T00:32:14;8.70;99.90
18041;DHT22;9145;48.588;9.250;2023-11-19T00:34:43;8.70;99.90
18041;DHT22;9145;48.588;9.250;2023-11-19T00:37:10;8.70;99.90
18041;DHT22;9145;48.588;9.250;2023-11-19T00:39:38;8.80;99.90
18041;DHT22;9145;48.588;9.250;2023-11-19T00:42:05;8.80;99.90
18041;DHT22;9145;48.588;9.250;2023-11-19T00:44:32;8.80;99.90
18041;DHT22;9145;48.588;9.250;2023-11-19T00:46:59;8.80;99.90
18041;DHT22;9145;48.588;9.250;2023-11-19T00:49:26;8.80;99.90
18041;DHT22;9145;48.588;9.250;2023-11-19T00:51:53;8.80;99.90
18041;DHT22;9145;48.588;9.250;2023-11-19T00:54:20;8.80;99.90
18041;DHT22;9145;48.588;9.250;2023-11-19T00:56:48;8.90;99.90
18041;DHT22;9145;48.588;9.250;2023-11-19T00:59:17;8.90;99.90
18041;DHT22;9145;48.588;9.250;2023-11-19T01:01:44;8.90;99.90
18041;DHT22;9145;48.588;9.250;2023-11-19T01:04:13;8.90;99.90
18041;DHT22;9145;48.588;9.250;2023-11-19T01:06:40;8.90;99.90
18041;DHT22;9145;48.588;9.250;2023-11-19T01:09:08;8.90;99.90
18041;DHT22;9145;48.588;9.250;2023-11-19T01:11:35;8.90;99.90
18041;DHT22;9145;48.588;9.250;2023-11-19T01:14:03;8.90;99.90
18041;DHT22;9145;48.588;9.250;2023-11-19T01:16:30;9.00;99.90
18041;DHT22;9145;48.588;9.250;2023-11-19T01:18:57;9.00;99.90
18041;DHT22;9145;48.588;9.250;2023-11-19T01:21:24;9.00;99.90
18041;DHT22;9145;48.588;9.250;2023-11-19T01:23:51;9.00;99.90
18041;DHT22;9145;48.588;9.250;2023-11-19T01:26:18;9.10;99.90
18041;DHT22;9145;48.588;9.250;2023-11-19T01:28:45;9.00;99.90
18041;DHT22;9145;48.588;9.250;2023-11-19T01:31:15;9.00;99.90
18041;DHT22;9145;48.588;9.250;2023-11-19T01:33:42;9.10;99.90
18041;DHT22;9145;48.588;9.250;2023-11-19T01:36:09;9.00;99.90
18041;DHT22;9145;48.588;9.250;2023-11-19T01:38:39;9.10;99.90
18041;DHT22;9145;48.588;9.250;2023-11-19T01:41:06;9.10;99.90
18041;DHT22;9145;48.588;9.250;2023-11-19T01:43:34;9.10;99.90
18041;DHT22;9145;48.588;9.250;2023-11-19T01:46:01;9.20;99.90
18041;DHT22;9145;48.588;9.250;2023-11-19T01:48:29;9.20;99.90
18041;DHT22;9145;48.588;9.250;2023-11-19T01:50:58;9.20;99.90
18041;DHT22;9145;48.588;9.250;2023-11-19T01:53:26;9.30;99.90
18041;DHT22;9145;48.588;9.250;2023-11-19T01:55:54;9.30;99.90
18041;DHT22;9145;48.588;9.250;2023-11-19T01:58:22;9.30;99.90
18041;DHT22;9145;48.588;9.250;2023-11-19T02:00:49;9.30;99.90
18041;DHT22;9145;48.588;9.250;2023-11-19T02:03:16;9.30;99.90
18041;DHT22;9145;48.588;9.250;2023-11-19T02:05:48;9.30;99.90
18041;DHT22;9145;48.588;9.250;2023-11-19T02:08:16;9.40;99.90
18041;DHT22;9145;48.588;9.250;2023-11-19T02:10:43;9.40;99.90
18041;DHT22;9145;48.588;9.250;2023-11-19T02:13:10;9.40;99.90
18041;DHT22;9145;48.588;9.250;2023-11-19T02:15:40;9.40;99.90
18041;DHT22;9145;48.588;9.250;2023-11-19T02:18:20;9.40;99.90
18041;DHT22;9145;48.588;9.250;2023-11-19T02:20:49;9.50;99.90
18041;DHT22;9145;48.588;9.250;2023-11-19T02:23:17;9.50;99.90
18041;DHT22;9145;48.588;9.250;2023-11-19T02:25:50;9.50;99.90
18041;DHT22;9145;48.588;9.250;2023-11-19T02:28:20;9.50;99.90
18041;DHT22;9145;48.588;9.250;2023-11-19T02:30:47;9.40;99.90
18041;DHT22;9145;48.588;9.250;2023-11-19T02:33:14;9.40;99.90
18041;DHT22;9145;48.588;9.250;2023-11-19T02:35:41;9.40;99.90
18041;DHT22;9145;48.588;9.250;2023-11-19T02:38:08;9.40;99.90
18041;DHT22;9145;48.588;9.250;2023-11-19T02:40:35;9.40;99.90
18041;DHT22;9145;48.588;9.250;2023-11-19T02:43:01;9.40;99.90
18041;DHT22;9145;48.588;9.250;2023-11-19T02:45:31;9.40;99.90
18041;DHT22;9145;48.588;9.250;2023-11-19T02:47:58;9.40;99.90
18041;DHT22;9145;48.588;9.250;2023-11-19T02:50:27;9.40;99.90
18041;DHT22;9145;48.588;9.250;2023-11-19T02:52:55;9.50;99.90
18041;DHT22;9145;48.588;9.250;2023-11-19T02:55:23;9.50;99.90
18041;DHT22;9145;48.588;9.250;2023-11-19T02:57:50;9.50;99.90
18041;DHT22;9145;48.588;9.250;2023-11-19T03:00:19;9.50;99.90
18041;DHT22;9145;48.588;9.250;2023-11-19T03:02:51;9.50;99.90
18041;DHT22;9145;48.588;9.250;2023-11-19T03:05:25;9.60;99.90
18041;DHT22;9145;48.588;9.250;2023-11-19T03:07:55;9.60;99.90
18041;DHT22;9145;48.588;9.250;2023-11-19T03:10:23;9.60;99.90
18041;DHT22;9145;48.588;9.250;2023-11-19T03:12:50;9.60;99.90
18041;DHT22;9145;48.588;9.250;2023-11-19T03:15:17;9.60;99.90
18041;DHT22;9145;48.588;9.250;2023-11-19T03:17:44;9.60;99.90
18041;DHT22;9145;48.588;9.250;2023-11-19T03:20:12;9.60;99.90
18041;DHT22;9145;48.588;9.250;2023-11-19T03:22:42;9.70;99.90
18041;DHT22;9145;48.588;9.250;2023-11-19T03:25:10;9.70;99.90
18041;DHT22;9145;48.588;9.250;2023-11-19T03:27:37;9.70;99.90
18041;DHT22;9145;48.588;9.250;2023-11-19T03:30:06;9.70;99.90
18041;DHT22;9145;48.588;9.250;2023-11-19T03:32:33;9.70;99.90
18041;DHT22;9145;48.588;9.250;2023-11-19T03:35:01;9.80;99.90
18041;DHT22;9145;48.588;9.250;2023-11-19T03:37:30;9.80;99.90
18041;DHT22;9145;48.588;9.250;2023-11-19T03:39:58;9.80;99.90
18041;DHT22;9145;48.588;9.250;2023-11-19T03:42:25;9.80;99.90
18041;DHT22;9145;48.588;9.250;2023-11-19T03:44:52;9.80;99.90
18041;DHT22;9145;48.588;9.250;2023-11-19T03:47:19;9.80;99.90
18041;DHT22;9145;48.588;9.250;2023-11-19T03:49:48;9.90;99.90
18041;DHT22;9145;48.588;9.250;2023-11-19T03:52:15;9.90;99.90
18041;DHT22;9145;48.588;9.250;2023-11-19T03:54:44;9.90;99.90
18041;DHT22;9145;48.588;9.250;2023-11-19T03:57:11;9.90;99.90
18041;DHT22;9145;48.588;9.250;2023-11-19T03:59:38;10.00;99.90
18041;DHT22;9145;48.588;9.250;2023-11-19T04:02:05;9.90;99.90
18041;DHT22;9145;48.588;9.250;2023-11-19T04:04:32;9.90;99.90
18041;DHT22;9145;48.588;9.250;2023-11-19T04:07:00;10.00;99.90
18041;DHT22;9145;48.588;9.250;2023-11-19T04:09:28;10.00;99.90
18041;DHT22;9145;48.588;9.250;2023-11-19T04:11:56;10.00;99.90
18041;DHT22;9145;48.588;9.250;2023-11-19T04:14:23;10.00;99.90
18041;DHT22;9145;48.588;9.250;2023-11-19T04:16:50;10.00;99.90
18041;DHT22;9145;48.588;9.250;2023-11-19T04:19:17;10.10;99.90
18041;DHT22;9145;48.588;9.250;2023-11-19T04:21:44;10.10;99.90
18041;DHT22;9145;48.588;9.250;2023-11-19T04:24:11;10.10;99.90
18041;DHT22;9145;48.588;9.250;2023-11-19T04:26:40;10.10;99.90
18041;DHT22;9145;48.588;9.250;2023-11-19T04:29:09;10.10;99.90
18041;DHT22;9145;48.588;9.250;2023-11-19T04:31:37;10.10;99.90
18041;DHT22;9145;48.588;9.250;2023-11-19T04:34:04;10.10;99.90
18041;DHT22;9145;48.588;9.250;2023-11-19T04:36:32;10.10;99.90
18041;DHT22;9145;48.588;9.250;2023-11-19T04:38:58;10.10;99.90
18041;DHT22;9145;48.588;9.250;2023-11-19T04:41:25;10.20;99.90
18041;DHT22;9145;48.588;9.250;2023-11-19T04:43:53;10.20;99.90
18041;DHT22;9145;48.588;9.250;2023-11-19T04:46:21;10.20;99.90
18041;DHT22;9145;48.588;9.250;2023-11-19T04:48:49;10.20;99.90
18041;DHT22;9145;48.588;9.250;2023-11-19T04:51:16;10.30;99.90
18041;DHT22;9145;48.588;9.250;2023-11-19T04:53:42;10.30;99.90
18041;DHT22;9145;48.588;9.250;2023-11-19T04:56:10;10.30;99.90
18041;DHT22;9145;48.588;9.250;2023-11-19T04:58:38;10.40;99.90
18041;DHT22;9145;48.588;9.250;2023-11-19T05:01:05;10.40;99.90
18041;DHT22;9145;48.588;9.250;2023-11-19T05:03:33;10.40;99.90
18041;DHT22;9145;48.588;9.250;2023-11-19T05:06:01;10.50;99.90
18041;DHT22;9145;48.588;9.250;2023-11-19T05:08:28;10.50;99.90
18041;DHT22;9145;48.588;9.250;2023-11-19T05:10:55;10.50;99.90
18041;DHT22;9145;48.588;9.250;2023-11-19T05:13:23;10.50;99.90
18041;DHT22;9145;48.588;9.250;2023-11-19T05:15:50;10.50;99.90
18041;DHT22;9145;48.588;9.250;2023-11-19T05:18:16;10.50;99.90
18041;DHT22;9145;48.588;9.250;2023-11-19T05:20:45;10.60;99.90
18041;DHT22;9145;48.588;9.250;2023-11-19T05:23:12;10.50;99.90
18041;DHT22;9145;48.588;9.250;2023-11-19T05:25:39;10.60;99.90
18041;DHT22;9145;48.588;9.250;2023-11-19T05:28:05;10.60;99.90
18041;DHT22;9145;48.588;9.250;2023-11-19T05:30:32;10.60;99.90
18041;DHT22;9145;48.588;9.250;2023-11-19T05:32:59;10.60;99.90
18041;DHT22;9145;48.588;9.250;2023-11-19T05:35:26;10.70;99.90
18041;DHT22;9145;48.588;9.250;2023-11-19T05:37:54;10.70;99.90
18041;DHT22;9145;48.588;9.250;2023-11-19T05:40:21;10.70;99.90
18041;DHT22;9145;48.588;9.250;2023-11-19T05:42:48;10.70;99.90
18041;DHT22;9145;48.588;9.250;2023-11-19T05:45:15;10.70;99.90
18041;DHT22;9145;48.588;9.250;2023-11-19T05:47:42;10.70;99.90
18041;DHT22;9145;48.588;9.250;2023-11-19T05:50:10;10.80;99.90
18041;DHT22;9145;48.588;9.250;2023-11-19T05:52:36;10.80;99.90
18041;DHT22;9145;48.588;9.250;2023-11-19T05:55:05;10.80;99.90
18041;DHT22;9145;48.588;9.250;2023-11-19T05:57:35;10.90;99.90
18041;DHT22;9145;48.588;9.250;2023-11-19T06:00:02;10.90;99.90
18041;DHT22;9145;48.588;9.250;2023-11-19T06:02:32;10.90;99.90
18041;DHT22;9145;48.588;9.250;2023-11-19T06:04:59;11.00;99.90
18041;DHT22;9145;48.588;9.250;2023-11-19T06:07:26;11.00;99.90
18041;DHT22;9145;48.588;9.250;2023-11-19T06:09:53;11.00;99.90
18041;DHT22;9145;48.588;9.250;2023-11-19T06:12:21;11.10;99.90
18041;DHT22;9145;48.588;9.250;2023-11-19T06:14:48;11.10;99.90
18041;DHT22;9145;48.588;9.250;2023-11-19T06:17:15;11.10;99.90
18041;DHT22;9145;48.588;9.250;2023-11-19T06:19:42;11.10;99.90
18041;DHT22;9145;48.588;9.250;2023-11-19T06:22:08;11.10;99.90
18041;DHT22;9145;48.588;9.250;2023-11-19T06:24:35;11.10;99.90
18041;DHT22;9145;48.588;9.250;2023-11-19T06:27:03;11.10;99.90
18041;DHT22;9145;48.588;9.250;2023-11-19T06:29:31;11.10;99.90
18041;DHT22;9145;48.588;9.250;2023-11-19T06:31:58;11.10;99.90
18041;DHT22;9145;48.588;9.250;2023-11-19T06:34:25;11.10;99.90
18041;DHT22;9145;48.588;9.250;2023-11-19T06:36:52;11.10;99.90
18041;DHT22;9145;48.588;9.250;2023-11-19T06:39:19;11.10;99.90
18041;DHT22;9145;48.588;9.250;2023-11-19T06:41:46;11.10;99.90
18041;DHT22;9145;48.588;9.250;2023-11-19T06:44:13;11.10;99.90
18041;DHT22;9145;48.588;9.250;2023-11-19T06:46:41;11.10;99.90
18041;DHT22;9145;48.588;9.250;2023-11-19T06:49:08;11.10;99.90
18041;DHT22;9145;48.588;9.250;2023-11-19T06:51:35;11.10;99.90
18041;DHT22;9145;48.588;9.250;2023-11-19T06:54:02;11.10;99.90
18041;DHT22;9145;48.588;9.250;2023-11-19T06:56:28;11.10;99.90
18041;DHT22;9145;48.588;9.250;2023-11-19T06:58:55;11.20;99.90
18041;DHT22;9145;48.588;9.250;2023-11-19T07:01:22;11.20;99.90
18041;DHT22;9145;48.588;9.250;2023-11-19T07:03:50;11.20;99.90
18041;DHT22;9145;48.588;9.250;2023-11-19T07:06:17;11.20;99.90
18041;DHT22;9145;48.588;9.250;2023-11-19T07:08:44;11.30;99.90
18041;DHT22;9145;48.588;9.250;2023-11-19T07:11:12;11.30;99.90
18041;DHT22;9145;48.588;9.250;2023-11-19T07:13:40;11.30;99.90
18041;DHT22;9145;48.588;9.250;2023-11-19T07:16:08;11.30;99.90
18041;DHT22;9145;48.588;9.250;2023-11-19T07:18:36;11.40;99.90
18041;DHT22;9145;48.588;9.250;2023-11-19T07:21:06;11.40;99.90
18041;DHT22;9145;48.588;9.250;2023-11-19T07:23:35;11.40;99.90
18041;DHT22;9145;48.588;9.250;2023-11-19T07:26:05;11.50;99.90
18041;DHT22;9145;48.588;9.250;2023-11-19T07:28:33;11.50;99.90
18041;DHT22;9145;48.588;9.250;2023-11-19T07:31:00;11.50;99.90
18041;DHT22;9145;48.588;9.250;2023-11-19T07:33:27;11.60;99.90
18041;DHT22;9145;48.588;9.250;2023-11-19T07:35:55;11.60;99.90
18041;DHT22;9145;48.588;9.250;2023-11-19T07:38:23;11.60;99.90
18041;DHT22;9145;48.588;9.250;2023-11-19T07:40:50;11.60;99.90
18041;DHT22;9145;48.588;9.250;2023-11-19T07:43:17;11.60;99.90
18041;DHT22;9145;48.588;9.250;2023-11-19T07:45:43;11.60;99.90
18041;DHT22;9145;48.588;9.250;2023-11-19T07:48:11;11.60;99.90
18041;DHT22;9145;48.588;9.250;2023-11-19T07:50:39;11.60;99.90
18041;DHT22;9145;48.588;9.250;2023-11-19T07:53:07;11.60;99.90
18041;DHT22;9145;48.588;9.250;2023-11-19T07:55:35;11.60;99.90
18041;DHT22;9145;48.588;9.250;2023-11-19T07:58:02;11.60;99.90
18041;DHT22;9145;48.588;9.250;2023-11-19T08:00:29;11.70;99.90
18041;DHT22;9145;48.588;9.250;2023-11-19T08:02:56;11.60;99.90
18041;DHT22;9145;48.588;9.250;2023-11-19T08:05:23;11.70;99.90
18041;DHT22;9145;48.588;9.250;2023-11-19T08:07:50;11.70;99.90
18041;DHT22;9145;48.588;9.250;2023-11-19T08:10:18;11.70;99.90
18041;DHT22;9145;48.588;9.250;2023-11-19T08:12:46;11.70;99.90
18041;DHT22;9145;48.588;9.250;2023-11-19T08:15:13;11.70;99.90
18041;DHT22;9145;48.588;9.250;2023-11-19T08:17:41;11.80;99.90
18041;DHT22;9145;48.588;9.250;2023-11-19T08:20:08;11.70;99.90
18041;DHT22;9145;48.588;9.250;2023-11-19T08:22:36;11.80;99.90
18041;DHT22;9145;48.588;9.250;2023-11-19T08:25:03;11.90;99.90
18041;DHT22;9145;48.588;9.250;2023-11-19T08:27:30;11.90;99.90
18041;DHT22;9145;48.588;9.250;2023-11-19T08:29:58;11.90;99.90
18041;DHT22;9145;48.588;9.250;2023-11-19T08:32:25;12.00;99.90
18041;DHT22;9145;48.588;9.250;2023-11-19T08:34:52;12.10;99.90
18041;DHT22;9145;48.588;9.250;2023-11-19T08:37:19;12.10;99.90
18041;DHT22;9145;48.588;9.250;2023-11-19T08:39:47;12.20;99.90
18041;DHT22;9145;48.588;9.250;2023-11-19T08:42:14;12.10;99.90
18041;DHT22;9145;48.588;9.250;2023-11-19T08:44:41;12.20;99.90
18041;DHT22;9145;48.588;9.250;2023-11-19T08:47:11;12.20;99.90
18041;DHT22;9145;48.588;9.250;2023-11-19T08:49:39;12.30;99.90
18041;DHT22;9145;48.588;9.250;2023-11-19T08:52:06;12.40;99.90
18041;DHT22;9145;48.588;9.250;2023-11-19T08:54:34;12.40;99.90
18041;DHT22;9145;48.588;9.250;2023-11-19T08:57:00;12.50;99.90
18041;DHT22;9145;48.588;9.250;2023-11-19T08:59:28;12.60;99.90
18041;DHT22;9145;48.588;9.250;2023-11-19T09:01:55;12.70;99.90
18041;DHT22;9145;48.588;9.250;2023-11-19T09:04:24;12.70;99.90
18041;DHT22;9145;48.588;9.250;2023-11-19T09:06:50;12.70;99.90
18041;DHT22;9145;48.588;9.250;2023-11-19T09:09:17;12.70;99.90
18041;DHT22;9145;48.588;9.250;2023-11-19T09:11:44;12.70;99.90
18041;DHT22;9145;48.588;9.250;2023-11-19T09:14:11;12.70;99.90
18041;DHT22;9145;48.588;9.250;2023-11-19T09:16:38;12.80;99.90
18041;DHT22;9145;48.588;9.250;2023-11-19T09:19:05;12.80;99.90
18041;DHT22;9145;48.588;9.250;2023-11-19T09:21:33;12.90;99.90
18041;DHT22;9145;48.588;9.250;2023-11-19T09:24:03;12.90;99.90
18041;DHT22;9145;48.588;9.250;2023-11-19T09:26:30;13.10;99.90
18041;DHT22;9145;48.588;9.250;2023-11-19T09:28:57;13.10;99.90
18041;DHT22;9145;48.588;9.250;2023-11-19T09:31:24;13.10;99.90
18041;DHT22;9145;48.588;9.250;2023-11-19T09:33:51;13.20;99.90
18041;DHT22;9145;48.588;9.250;2023-11-19T09:36:17;13.20;99.90
18041;DHT22;9145;48.588;9.250;2023-11-19T09:38:46;13.20;99.90
18041;DHT22;9145;48.588;9.250;2023-11-19T09:41:12;13.30;99.90
18041;DHT22;9145;48.588;9.250;2023-11-19T09:43:40;13.30;99.90
18041;DHT22;9145;48.588;9.250;2023-11-19T09:46:09;13.40;99.90
18041;DHT22;9145;48.588;9.250;2023-11-19T09:48:37;13.40;99.90
18041;DHT22;9145;48.588;9.250;2023-11-19T09:51:06;13.30;99.90
18041;DHT22;9145;48.588;9.250;2023-11-19T09:53:33;13.30;99.90
18041;DHT22;9145;48.588;9.250;2023-11-19T09:56:03;13.20;99.90
18041;DHT22;9145;48.588;9.250;2023-11-19T09:58:30;13.20;99.90
18041;DHT22;9145;48.588;9.250;2023-11-19T10:00:57;13.20;99.90
18041;DHT22;9145;48.588;9.250;2023-11-19T10:03:25;13.20;99.90
18041;DHT22;9145;48.588;9.250;2023-11-19T10:05:54;13.30;99.90
18041;DHT22;9145;48.588;9.250;2023-11-19T10:08:21;13.30;99.90
18041;DHT22;9145;48.588;9.250;2023-11-19T10:10:48;13.30;99.90
18041;DHT22;9145;48.588;9.250;2023-11-19T10:13:18;13.40;99.90
18041;DHT22;9145;48.588;9.250;2023-11-19T10:15:45;13.40;99.90
18041;DHT22;9145;48.588;9.250;2023-11-19T10:18:14;13.40;99.90
18041;DHT22;9145;48.588;9.250;2023-11-19T10:20:41;13.40;99.90
18041;DHT22;9145;48.588;9.250;2023-11-19T10:23:09;13.50;99.90
18041;DHT22;9145;48.588;9.250;2023-11-19T10:25:36;13.60;99.90
18041;DHT22;9145;48.588;9.250;2023-11-19T10:28:03;13.70;99.90
18041;DHT22;9145;48.588;9.250;2023-11-19T10:30:31;13.80;99.90
18041;DHT22;9145;48.588;9.250;2023-11-19T10:33:03;13.90;99.90
18041;DHT22;9145;48.588;9.250;2023-11-19T10:35:31;13.80;99.90
18041;DHT22;9145;48.588;9.250;2023-11-19T10:37:59;13.90;99.90
18041;DHT22;9145;48.588;9.250;2023-11-19T10:40:38;13.90;99.90
18041;DHT22;9145;48.588;9.250;2023-11-19T10:43:05;13.90;99.90
18041;DHT22;9145;48.588;9.250;2023-11-19T10:45:34;13.90;99.90
18041;DHT22;9145;48.588;9.250;2023-11-19T10:48:02;13.90;99.90
18041;DHT22;9145;48.588;9.250;2023-11-19T10:50:32;13.90;99.90
18041;DHT22;9145;48.588;9.250;2023-11-19T10:52:59;14.10;99.90
18041;DHT22;9145;48.588;9.250;2023-11-19T10:55:28;14.10;99.90
18041;DHT22;9145;48.588;9.250;2023-11-19T10:57:58;14.00;99.90
18041;DHT22;9145;48.588;9.250;2023-11-19T11:00:25;14.00;99.90
18041;DHT22;9145;48.588;9.250;2023-11-19T11:02:56;14.00;99.90
18041;DHT22;9145;48.588;9.250;2023-11-19T11:05:26;13.90;99.90
18041;DHT22;9145;48.588;9.250;2023-11-19T11:07:55;14.00;99.90
18041;DHT22;9145;48.588;9.250;2023-11-19T11:10:25;14.00;99.90
18041;DHT22;9145;48.588;9.250;2023-11-19T11:12:52;14.10;99.90
18041;DHT22;9145;48.588;9.250;2023-11-19T11:15:27;14.20;99.90
18041;DHT22;9145;48.588;9.250;2023-11-19T11:18:00;14.20;99.90
18041;DHT22;9145;48.588;9.250;2023-11-19T11:20:29;14.30;99.90
18041;DHT22;9145;48.588;9.250;2023-11-19T11:23:06;14.30;99.90
18041;DHT22;9145;48.588;9.250;2023-11-19T11:25:43;14.30;99.90
18041;DHT22;9145;48.588;9.250;2023-11-19T11:28:21;14.40;99.90
18041;DHT22;9145;48.588;9.250;2023-11-19T11:34:05;14.50;99.90
18041;DHT22;9145;48.588;9.250;2023-11-19T11:36:38;14.60;99.90
18041;DHT22;9145;48.588;9.250;2023-11-19T11:39:09;14.60;99.90
18041;DHT22;9145;48.588;9.250;2023-11-19T11:41:36;14.60;99.90
18041;DHT22;9145;48.588;9.250;2023-11-19T11:44:03;14.70;99.90
18041;DHT22;9145;48.588;9.250;2023-11-19T11:46:53;14.80;99.90
18041;DHT22;9145;48.588;9.250;2023-11-19T11:49:28;14.80;99.90
18041;DHT22;9145;48.588;9.250;2023-11-19T11:51:59;14.80;99.90
18041;DHT22;9145;48.588;9.250;2023-11-19T11:54:28;14.80;99.90
18041;DHT22;9145;48.588;9.250;2023-11-19T11:57:12;14.90;99.90
18041;DHT22;9145;48.588;9.250;2023-11-19T11:59:49;15.00;99.90
18041;DHT22;9145;48.588;9.250;2023-11-19T12:02:17;14.90;99.90
18041;DHT22;9145;48.588;9.250;2023-11-19T12:04:48;15.00;99.90
18041;DHT22;9145;48.588;9.250;2023-11-19T12:07:17;15.00;99.90
18041;DHT22;9145;48.588;9.250;2023-11-19T12:09:48;15.00;99.90
18041;DHT22;9145;48.588;9.250;2023-11-19T12:12:22;15.00;99.90
18041;DHT22;9145;48.588;9.250;2023-11-19T12:15:07;14.90;99.90
18041;DHT22;9145;48.588;9.250;2023-11-19T12:17:46;14.80;99.90
18041;DHT22;9145;48.588;9.250;2023-11-19T12:20:17;14.70;99.90
18041;DHT22;9145;48.588;9.250;2023-11-19T12:22:45;14.60;99.90
18041;DHT22;9145;48.588;9.250;2023-11-19T12:25:14;14.60;99.90
18041;DHT22;9145;48.588;9.250;2023-11-19T12:27:43;14.70;99.90
18041;DHT22;9145;48.588;9.250;2023-11-19T12:30:11;14.80;99.90
18041;DHT22;9145;48.588;9.250;2023-11-19T12:32:39;14.80;99.90
18041;DHT22;9145;48.588;9.250;2023-11-19T12:35:07;14.70;99.90
18041;DHT22;9145;48.588;9.250;2023-11-19T12:37:41;14.70;99.90
18041;DHT22;9145;48.588;9.250;2023-11-19T12:40:15;14.80;99.90
18041;DHT22;9145;48.588;9.250;2023-11-19T12:42:43;14.80;99.90
18041;DHT22;9145;48.588;9.250;2023-11-19T12:45:10;14.90;99.90
18041;DHT22;9145;48.588;9.250;2023-11-19T12:47:38;15.20;99.90
18041;DHT22;9145;48.588;9.250;2023-11-19T12:50:06;15.40;99.90
18041;DHT22;9145;48.588;9.250;2023-11-19T12:52:33;15.60;99.90
18041;DHT22;9145;48.588;9.250;2023-11-19T12:55:01;15.50;99.90
18041;DHT22;9145;48.588;9.250;2023-11-19T12:57:39;15.50;99.90
18041;DHT22;9145;48.588;9.250;2023-11-19T13:00:07;15.70;99.90
18041;DHT22;9145;48.588;9.250;2023-11-19T13:02:46;15.90;99.90
18041;DHT22;9145;48.588;9.250;2023-11-19T13:05:25;15.70;99.90
18041;DHT22;9145;48.588;9.250;2023-11-19T13:07:58;15.50;99.90
18041;DHT22;9145;48.588;9.250;2023-11-19T13:10:27;15.30;99.90
18041;DHT22;9145;48.588;9.250;2023-11-19T13:13:04;15.10;99.90
18041;DHT22;9145;48.588;9.250;2023-11-19T13:15:31;15.10;99.90
18041;DHT22;9145;48.588;9.250;2023-11-19T13:17:58;15.00;99.90
18041;DHT22;9145;48.588;9.250;2023-11-19T13:20:25;15.00;99.90
18041;DHT22;9145;48.588;9.250;2023-11-19T13:22:57;15.30;99.90
18041;DHT22;9145;48.588;9.250;2023-11-19T13:25:24;15.80;99.90
18041;DHT22;9145;48.588;9.250;2023-11-19T13:27:52;16.10;99.90
18041;DHT22;9145;48.588;9.250;2023-11-19T13:30:19;16.20;99.90
18041;DHT22;9145;48.588;9.250;2023-11-19T13:32:47;16.20;99.90
18041;DHT22;9145;48.588;9.250;2023-11-19T13:35:15;16.10;99.90
18041;DHT22;9145;48.588;9.250;2023-11-19T13:37:42;16.10;99.90
18041;DHT22;9145;48.588;9.250;2023-11-19T13:40:10;16.00;99.90
18041;DHT22;9145;48.588;9.250;2023-11-19T13:42:39;16.00;99.90
18041;DHT22;9145;48.588;9.250;2023-11-19T13:45:09;15.80;99.90
18041;DHT22;9145;48.588;9.250;2023-11-19T13:47:37;15.60;99.90
18041;DHT22;9145;48.588;9.250;2023-11-19T13:50:08;15.70;99.90
18041;DHT22;9145;48.588;9.250;2023-11-19T13:52:35;16.00;99.90
18041;DHT22;9145;48.588;9.250;2023-11-19T13:55:04;16.20;99.90
18041;DHT22;9145;48.588;9.250;2023-11-19T13:57:32;16.20;99.90
18041;DHT22;9145;48.588;9.250;2023-11-19T14:00:00;16.10;99.90
18041;DHT22;9145;48.588;9.250;2023-11-19T14:02:28;15.80;99.90
18041;DHT22;9145;48.588;9.250;2023-11-19T14:04:55;15.80;99.90
18041;DHT22;9145;48.588;9.250;2023-11-19T14:07:24;15.90;99.90
18041;DHT22;9145;48.588;9.250;2023-11-19T14:09:53;16.10;99.90
18041;DHT22;9145;48.588;9.250;2023-11-19T14:12:20;15.90;99.90
18041;DHT22;9145;48.588;9.250;2023-11-19T14:14:47;15.90;99.90
18041;DHT22;9145;48.588;9.250;2023-11-19T14:17:14;15.60;99.90
18041;DHT22;9145;48.588;9.250;2023-11-19T14:19:43;15.40;99.90
18041;DHT22;9145;48.588;9.250;2023-11-19T14:22:10;15.40;99.90
18041;DHT22;9145;48.588;9.250;2023-11-19T14:24:37;15.30;99.90
18041;DHT22;9145;48.588;9.250;2023-11-19T14:27:05;15.30;99.90
18041;DHT22;9145;48.588;9.250;2023-11-19T14:29:32;15.10;99.90
18041;DHT22;9145;48.588;9.250;2023-11-19T14:32:00;15.00;99.90
18041;DHT22;9145;48.588;9.250;2023-11-19T14:34:28;15.00;99.90
18041;DHT22;9145;48.588;9.250;2023-11-19T14:36:56;15.30;99.90
18041;DHT22;9145;48.588;9.250;2023-11-19T14:39:23;15.30;99.90
18041;DHT22;9145;48.588;9.250;2023-11-19T14:41:50;15.10;99.90
18041;DHT22;9145;48.588;9.250;2023-11-19T14:44:18;14.90;99.90
18041;DHT22;9145;48.588;9.250;2023-11-19T14:46:45;14.70;99.90
18041;DHT22;9145;48.588;9.250;2023-11-19T14:49:12;14.70;99.90
18041;DHT22;9145;48.588;9.250;2023-11-19T14:51:39;14.50;99.90
18041;DHT22;9145;48.588;9.250;2023-11-19T14:54:08;14.50;99.90
18041;DHT22;9145;48.588;9.250;2023-11-19T14:56:34;14.40;99.90
18041;DHT22;9145;48.588;9.250;2023-11-19T14:59:01;14.30;99.90
18041;DHT22;9145;48.588;9.250;2023-11-19T15:01:28;14.30;99.90
18041;DHT22;9145;48.588;9.250;2023-11-19T15:03:56;14.30;99.90
18041;DHT22;9145;48.588;9.250;2023-11-19T15:06:23;14.30;99.90
18041;DHT22;9145;48.588;9.250;2023-11-19T15:08:52;14.30;99.90
18041;DHT22;9145;48.588;9.250;2023-11-19T15:11:21;14.30;99.90
18041;DHT22;9145;48.588;9.250;2023-11-19T15:13:48;14.40;99.90
18041;DHT22;9145;48.588;9.250;2023-11-19T15:16:15;14.60;99.90
18041;DHT22;9145;48.588;9.250;2023-11-19T15:18:47;14.60;99.90
18041;DHT22;9145;48.588;9.250;2023-11-19T15:21:14;14.50;99.90
18041;DHT22;9145;48.588;9.250;2023-11-19T15:23:41;14.40;99.90
18041;DHT22;9145;48.588;9.250;2023-11-19T15:26:07;14.40;99.90
18041;DHT22;9145;48.588;9.250;2023-11-19T15:28:37;14.30;99.90
18041;DHT22;9145;48.588;9.250;2023-11-19T15:31:04;14.20;99.90
18041;DHT22;9145;48.588;9.250;2023-11-19T15:33:31;14.30;99.90
18041;DHT22;9145;48.588;9.250;2023-11-19T15:35:58;14.20;99.90
18041;DHT22;9145;48.588;9.250;2023-11-19T15:38:25;14.10;99.90
18041;DHT22;9145;48.588;9.250;2023-11-19T15:40:52;14.00;99.90
18041;DHT22;9145;48.588;9.250;2023-11-19T15:43:20;13.90;99.90
18041;DHT22;9145;48.588;9.250;2023-11-19T15:45:49;13.90;99.90
18041;DHT22;9145;48.588;9.250;2023-11-19T15:48:16;13.80;99.90
18041;DHT22;9145;48.588;9.250;2023-11-19T15:50:43;13.80;99.90
18041;DHT22;9145;48.588;9.250;2023-11-19T15:53:10;13.80;99.90
18041;DHT22;9145;48.588;9.250;2023-11-19T15:55:37;13.70;99.90
18041;DHT22;9145;48.588;9.250;2023-11-19T15:58:04;13.70;99.90